createdAt,value
2023-07-07T00:00:42.778Z,24.40
2023-07-07T00:03:11.705Z,24.40
2023-07-07T00:05:42.826Z,24.40
2023-07-07T00:08:12.763Z,24.40
2023-07-07T00:10:44.112Z,24.40
2023-07-07T00:13:14.826Z,24.40
2023-07-07T00:15:45.815Z,24.30
2023-07-07T00:18:16.618Z,24.40
2023-07-07T00:20:45.342Z,24.30
2023-07-07T00:23:14.307Z,24.30
2023-07-07T00:25:42.851Z,24.30
2023-07-07T00:28:11.309Z,24.30
2023-07-07T00:30:41.564Z,24.30
2023-07-07T00:33:11.393Z,24.30
2023-07-07T00:35:47.259Z,24.30
2023-07-07T00:38:15.975Z,24.30
2023-07-07T00:40:44.658Z,24.30
2023-07-07T00:43:14.466Z,24.30
2023-07-07T00:45:44.433Z,24.30
2023-07-07T00:48:15.385Z,24.30
2023-07-07T00:50:48.679Z,24.30
2023-07-07T00:53:17.421Z,24.30
2023-07-07T00:55:51.371Z,24.30
2023-07-07T00:58:23.489Z,24.30
2023-07-07T01:00:58.917Z,24.30
2023-07-07T01:03:38.715Z,24.30
2023-07-07T01:06:10.504Z,24.30
2023-07-07T01:08:41.855Z,24.30
2023-07-07T01:11:10.845Z,24.30
2023-07-07T01:13:40.084Z,24.30
2023-07-07T01:16:17.690Z,24.20
2023-07-07T01:18:54.210Z,24.30
2023-07-07T01:21:31.040Z,24.30
2023-07-07T01:24:31.116Z,24.30
2023-07-07T01:27:45.987Z,24.30
2023-07-07T01:30:45.889Z,24.20
2023-07-07T01:33:18.448Z,24.20
2023-07-07T01:35:46.980Z,24.20
2023-07-07T01:38:35.104Z,24.20
2023-07-07T01:41:17.861Z,24.20
2023-07-07T01:44:02.676Z,24.20
2023-07-07T01:46:36.036Z,24.20
2023-07-07T01:49:13.350Z,24.20
2023-07-07T01:51:48.175Z,24.20
2023-07-07T01:54:18.801Z,24.20
2023-07-07T01:56:49.615Z,24.20
2023-07-07T01:59:19.361Z,24.20
2023-07-07T02:01:49.665Z,24.20
2023-07-07T02:04:18.423Z,24.20
2023-07-07T02:06:47.060Z,24.20
2023-07-07T02:09:15.757Z,24.20
2023-07-07T02:11:44.236Z,24.20
2023-07-07T02:14:13.266Z,24.10
2023-07-07T02:16:41.937Z,24.20
2023-07-07T02:19:11.869Z,24.10
2023-07-07T02:21:40.668Z,24.10
2023-07-07T02:24:09.335Z,24.10
2023-07-07T02:26:37.937Z,24.10
2023-07-07T02:29:06.364Z,24.10
2023-07-07T02:31:34.985Z,24.10
2023-07-07T02:34:03.607Z,24.10
2023-07-07T02:36:33.555Z,24.10
2023-07-07T02:39:02.324Z,24.10
2023-07-07T02:41:32.072Z,24.10
2023-07-07T02:44:00.846Z,24.10
2023-07-07T02:46:29.433Z,24.10
2023-07-07T02:48:58.037Z,24.10
2023-07-07T02:51:26.606Z,24.10
2023-07-07T02:53:57.070Z,24.10
2023-07-07T02:56:27.978Z,24.10
2023-07-07T02:58:56.756Z,24.10
2023-07-07T03:01:25.493Z,24.10
2023-07-07T03:03:58.451Z,24.10
2023-07-07T03:06:27.649Z,24.10
2023-07-07T03:08:58.553Z,24.10
2023-07-07T03:11:27.530Z,24.00
2023-07-07T03:13:58.132Z,24.10
2023-07-07T03:16:32.684Z,24.00
2023-07-07T03:19:10.989Z,24.00
2023-07-07T03:21:48.161Z,24.00
2023-07-07T03:24:31.138Z,24.00
2023-07-07T03:27:02.427Z,24.00
2023-07-07T03:29:36.418Z,24.00
2023-07-07T03:32:05.834Z,24.00
2023-07-07T03:34:37.766Z,24.00
2023-07-07T03:37:10.746Z,24.00
2023-07-07T03:39:41.508Z,23.90
2023-07-07T03:42:10.544Z,23.90
2023-07-07T03:44:39.725Z,23.90
2023-07-07T03:47:08.746Z,23.90
2023-07-07T03:49:38.899Z,23.90
2023-07-07T03:52:08.836Z,23.90
2023-07-07T03:54:38.369Z,23.90
2023-07-07T03:57:08.752Z,23.90
2023-07-07T03:59:37.311Z,23.90
2023-07-07T04:02:06.644Z,23.90
2023-07-07T04:04:35.393Z,23.90
2023-07-07T04:07:04.304Z,23.90
2023-07-07T04:09:32.905Z,23.90
2023-07-07T04:12:01.483Z,23.90
2023-07-07T04:14:31.422Z,23.90
2023-07-07T04:17:03.216Z,23.90
2023-07-07T04:19:32.430Z,23.90
2023-07-07T04:22:01.028Z,23.90
2023-07-07T04:24:29.892Z,23.80
2023-07-07T04:26:58.543Z,23.80
2023-07-07T04:29:27.145Z,23.80
2023-07-07T04:31:57.044Z,23.80
2023-07-07T04:34:25.626Z,23.90
2023-07-07T04:36:54.219Z,23.80
2023-07-07T04:39:22.749Z,23.80
2023-07-07T04:41:52.653Z,23.80
2023-07-07T04:44:21.218Z,23.80
2023-07-07T04:46:49.835Z,23.80
2023-07-07T04:49:19.773Z,23.80
2023-07-07T04:51:48.363Z,23.80
2023-07-07T04:54:17.011Z,23.80
2023-07-07T04:56:46.613Z,23.80
2023-07-07T04:59:15.223Z,23.80
2023-07-07T05:01:43.951Z,23.80
2023-07-07T05:04:13.171Z,23.80
2023-07-07T05:06:43.243Z,23.80
2023-07-07T05:09:14.319Z,23.80
2023-07-07T05:11:42.890Z,23.80
2023-07-07T05:14:11.525Z,23.80
2023-07-07T05:16:41.062Z,23.80
2023-07-07T05:19:10.346Z,23.80
2023-07-07T05:21:38.878Z,23.80
2023-07-07T05:24:09.039Z,23.80
2023-07-07T05:26:37.606Z,23.70
2023-07-07T05:29:07.704Z,23.70
2023-07-07T05:31:36.578Z,23.80
2023-07-07T05:34:05.336Z,23.70
2023-07-07T05:36:34.131Z,23.70
2023-07-07T05:39:02.731Z,23.80
2023-07-07T05:41:32.816Z,23.70
2023-07-07T05:44:01.307Z,23.70
2023-07-07T05:46:29.871Z,23.70
2023-07-07T05:48:58.468Z,23.70
2023-07-07T05:51:27.070Z,23.70
2023-07-07T05:53:55.635Z,23.70
2023-07-07T05:56:26.499Z,23.70
2023-07-07T05:58:57.661Z,23.70
2023-07-07T06:01:26.934Z,23.70
2023-07-07T06:03:55.599Z,23.70
2023-07-07T06:06:24.194Z,23.80
2023-07-07T06:08:52.902Z,23.70
2023-07-07T06:11:21.417Z,23.80
2023-07-07T06:13:49.996Z,23.80
2023-07-07T06:16:21.182Z,23.80
2023-07-07T06:18:49.813Z,23.70
2023-07-07T06:21:18.343Z,23.80
2023-07-07T06:23:46.961Z,23.80
2023-07-07T06:26:15.590Z,23.80
2023-07-07T06:28:44.184Z,23.70
2023-07-07T06:31:12.894Z,23.80
2023-07-07T06:33:43.675Z,23.70
2023-07-07T06:36:12.302Z,23.80
2023-07-07T06:38:40.872Z,23.70
2023-07-07T06:41:12.513Z,23.70
2023-07-07T06:43:41.081Z,23.70
2023-07-07T06:46:14.132Z,23.70
2023-07-07T06:48:44.047Z,23.70
2023-07-07T06:51:12.855Z,23.70
2023-07-07T06:53:42.158Z,23.70
2023-07-07T06:56:11.931Z,23.70
2023-07-07T06:58:40.493Z,23.70
2023-07-07T07:01:14.354Z,23.70
2023-07-07T07:03:45.389Z,23.70
2023-07-07T07:06:14.950Z,23.70
2023-07-07T07:08:43.889Z,23.70
2023-07-07T07:11:12.343Z,23.70
2023-07-07T07:13:40.753Z,23.70
2023-07-07T07:16:09.170Z,23.70
2023-07-07T07:18:37.590Z,23.70
2023-07-07T07:21:07.424Z,23.70
2023-07-07T07:23:36.491Z,23.70
2023-07-07T07:26:05.448Z,23.70
2023-07-07T07:28:33.814Z,23.70
2023-07-07T07:31:02.692Z,23.70
2023-07-07T07:33:32.254Z,23.70
2023-07-07T07:36:00.661Z,23.70
2023-07-07T07:38:31.033Z,23.70
2023-07-07T07:40:59.807Z,23.70
2023-07-07T07:43:28.529Z,23.70
2023-07-07T07:45:57.514Z,23.80
2023-07-07T07:48:26.003Z,23.70
2023-07-07T07:50:54.404Z,23.70
2023-07-07T07:53:23.771Z,23.70
2023-07-07T07:55:56.581Z,23.70
2023-07-07T07:58:24.987Z,23.80
2023-07-07T08:00:53.376Z,23.70
2023-07-07T08:03:21.943Z,23.80
2023-07-07T08:05:51.582Z,23.70
2023-07-07T08:08:20.029Z,23.80
2023-07-07T08:10:58.346Z,23.70
2023-07-07T08:13:40.028Z,23.70
2023-07-07T08:16:11.441Z,23.70
2023-07-07T08:18:39.864Z,23.70
2023-07-07T08:21:08.998Z,23.80
2023-07-07T08:23:37.488Z,23.80
2023-07-07T08:28:48.861Z,23.70
2023-07-07T08:31:17.902Z,23.70
2023-07-07T08:33:57.114Z,23.70
2023-07-07T08:36:26.969Z,23.70
2023-07-07T08:38:55.337Z,23.70
2023-07-07T08:41:23.855Z,23.80
2023-07-07T08:43:55.204Z,23.80
2023-07-07T08:46:29.109Z,23.70
2023-07-07T08:49:06.842Z,23.70
2023-07-07T08:51:41.671Z,23.80
2023-07-07T08:54:17.884Z,23.80
2023-07-07T08:56:54.026Z,23.70
2023-07-07T08:59:37.188Z,23.80
2023-07-07T09:02:17.230Z,23.70
2023-07-07T09:04:57.126Z,23.70
2023-07-07T09:07:58.387Z,23.80
2023-07-07T09:10:38.315Z,23.70
2023-07-07T09:13:14.850Z,23.80
2023-07-07T09:15:51.087Z,23.80
2023-07-07T09:18:24.184Z,23.80
2023-07-07T09:20:56.463Z,23.70
2023-07-07T09:23:28.114Z,23.70
2023-07-07T09:26:01.649Z,23.70
2023-07-07T09:28:33.860Z,23.70
2023-07-07T09:31:20.315Z,23.70
2023-07-07T09:33:49.162Z,23.70
2023-07-07T09:36:21.048Z,23.70
2023-07-07T09:38:58.892Z,23.70
2023-07-07T09:41:36.441Z,23.80
2023-07-07T09:44:19.873Z,23.70
2023-07-07T09:46:58.495Z,23.80
2023-07-07T09:49:40.079Z,23.80
2023-07-07T09:52:28.401Z,23.80
2023-07-07T09:54:59.478Z,23.80
2023-07-07T09:57:33.267Z,23.80
2023-07-07T10:02:34.912Z,23.80
2023-07-07T10:05:06.950Z,23.80
2023-07-07T10:07:39.204Z,23.80
2023-07-07T10:10:14.598Z,23.80
2023-07-07T10:12:44.521Z,23.80
2023-07-07T10:15:50.236Z,23.80
2023-07-07T10:18:25.321Z,23.80
2023-07-07T10:20:57.877Z,23.80
2023-07-07T10:23:30.986Z,23.80
2023-07-07T10:25:59.605Z,23.80
2023-07-07T10:28:28.796Z,23.80
2023-07-07T10:30:58.223Z,23.80
2023-07-07T10:33:28.108Z,23.80
2023-07-07T10:35:56.658Z,23.80
2023-07-07T10:38:27.313Z,23.80
2023-07-07T10:41:00.130Z,23.80
2023-07-07T10:43:28.981Z,23.80
2023-07-07T10:45:57.344Z,23.80
2023-07-07T10:48:27.241Z,23.80
2023-07-07T10:51:05.772Z,23.80
2023-07-07T10:53:50.818Z,23.80
2023-07-07T10:56:29.314Z,23.80
2023-07-07T10:59:31.000Z,23.90
2023-07-07T11:02:16.177Z,23.90
2023-07-07T11:05:17.556Z,23.90
2023-07-07T11:07:56.139Z,23.90
2023-07-07T11:10:41.973Z,23.90
2023-07-07T11:13:20.669Z,23.90
2023-07-07T11:15:56.496Z,23.90
2023-07-07T11:18:46.213Z,23.90
2023-07-07T11:21:25.692Z,23.90
2023-07-07T11:24:35.960Z,23.90
2023-07-07T11:27:34.422Z,23.90
2023-07-07T11:30:15.628Z,23.90
2023-07-07T11:32:51.348Z,23.90
2023-07-07T11:35:32.899Z,23.90
2023-07-07T11:38:18.921Z,23.90
2023-07-07T11:41:00.488Z,23.90
2023-07-07T11:43:58.542Z,24.00
2023-07-07T11:46:59.229Z,23.90
2023-07-07T11:49:51.932Z,24.00
2023-07-07T11:52:36.256Z,24.00
2023-07-07T11:55:19.285Z,24.00
2023-07-07T11:58:01.358Z,24.00
2023-07-07T12:00:44.083Z,24.00
2023-07-07T12:03:38.720Z,24.00
2023-07-07T12:06:16.514Z,24.00
2023-07-07T12:09:00.400Z,24.00
2023-07-07T12:11:38.571Z,24.10
2023-07-07T12:14:21.865Z,24.00
2023-07-07T12:16:52.696Z,24.10
2023-07-07T12:19:32.193Z,24.10
2023-07-07T12:22:04.271Z,24.10
2023-07-07T12:24:39.855Z,24.10
2023-07-07T12:27:19.401Z,24.10
2023-07-07T12:29:50.075Z,24.10
2023-07-07T12:32:18.701Z,24.10
2023-07-07T12:34:52.245Z,24.10
2023-07-07T12:37:24.170Z,24.10
2023-07-07T12:39:58.315Z,24.10
2023-07-07T12:42:30.594Z,24.10
2023-07-07T12:45:08.807Z,24.20
2023-07-07T12:47:41.529Z,24.20
2023-07-07T12:50:27.433Z,24.20
2023-07-07T12:53:00.876Z,24.20
2023-07-07T12:55:31.240Z,24.20
2023-07-07T12:58:44.691Z,24.20
2023-07-07T13:01:28.597Z,24.20
2023-07-07T13:04:15.037Z,24.30
2023-07-07T13:06:48.952Z,24.30
2023-07-07T13:09:25.935Z,24.20
2023-07-07T13:11:59.326Z,24.30
2023-07-07T13:14:41.372Z,24.30
2023-07-07T13:17:13.896Z,24.30
2023-07-07T13:19:50.114Z,24.30
2023-07-07T13:22:23.846Z,24.30
2023-07-07T13:24:52.423Z,24.30
2023-07-07T13:27:24.845Z,24.30
2023-07-07T13:30:00.354Z,24.30
2023-07-07T13:32:30.888Z,24.30
2023-07-07T13:35:01.368Z,24.30
2023-07-07T13:37:32.224Z,24.40
2023-07-07T13:40:01.225Z,24.40
2023-07-07T13:42:32.174Z,24.40
2023-07-07T13:45:04.064Z,24.40
2023-07-07T13:47:33.685Z,24.40
2023-07-07T13:50:06.471Z,24.40
2023-07-07T13:52:37.091Z,24.40
2023-07-07T13:55:06.273Z,24.40
2023-07-07T13:57:35.586Z,24.50
2023-07-07T14:00:08.207Z,24.50
2023-07-07T14:02:45.034Z,24.50
2023-07-07T14:05:17.315Z,24.50
2023-07-07T14:07:45.958Z,24.50
2023-07-07T14:10:26.153Z,24.50
2023-07-07T14:12:55.080Z,24.50
2023-07-07T14:15:34.044Z,24.50
2023-07-07T14:18:07.735Z,24.50
2023-07-07T14:20:42.020Z,24.60
2023-07-07T14:23:14.048Z,24.60
2023-07-07T14:25:45.643Z,24.60
2023-07-07T14:28:17.800Z,24.60
2023-07-07T14:30:53.006Z,24.60
2023-07-07T14:33:25.971Z,24.60
2023-07-07T14:35:58.984Z,24.60
2023-07-07T14:38:32.856Z,24.60
2023-07-07T14:41:09.703Z,24.70
2023-07-07T14:43:42.576Z,24.70
2023-07-07T14:46:17.379Z,24.70
2023-07-07T14:48:51.304Z,24.70
2023-07-07T14:51:23.960Z,24.70
2023-07-07T14:53:58.018Z,24.70
2023-07-07T14:56:31.637Z,24.70
2023-07-07T14:59:01.620Z,24.70
2023-07-07T15:01:33.827Z,24.70
2023-07-07T15:04:08.201Z,24.70
2023-07-07T15:06:38.907Z,24.80
2023-07-07T15:09:08.223Z,24.80
2023-07-07T15:11:40.685Z,24.80
2023-07-07T15:14:13.637Z,24.80
2023-07-07T15:16:44.586Z,24.80
2023-07-07T15:19:23.769Z,24.80
2023-07-07T15:21:55.007Z,24.90
2023-07-07T15:24:23.583Z,24.90
2023-07-07T15:26:52.146Z,24.90
2023-07-07T15:29:42.502Z,24.90
2023-07-07T15:32:17.084Z,24.90
2023-07-07T15:34:45.584Z,24.90
2023-07-07T15:37:14.462Z,24.90
2023-07-07T15:39:43.904Z,24.90
2023-07-07T15:42:12.589Z,24.90
2023-07-07T15:44:41.713Z,24.90
2023-07-07T15:47:20.592Z,25.00
2023-07-07T15:49:49.691Z,25.00
2023-07-07T15:52:19.772Z,25.00
2023-07-07T15:54:48.175Z,25.00
2023-07-07T15:57:16.506Z,25.00
2023-07-07T15:59:44.968Z,25.00
2023-07-07T16:02:20.384Z,25.10
2023-07-07T16:04:49.704Z,25.10
2023-07-07T16:07:18.743Z,25.10
2023-07-07T16:09:47.152Z,25.10
2023-07-07T16:12:18.293Z,25.10
2023-07-07T16:14:47.117Z,25.10
2023-07-07T16:17:20.776Z,25.10
2023-07-07T16:19:50.453Z,25.10
2023-07-07T16:22:19.187Z,25.10
2023-07-07T16:24:48.324Z,25.10
2023-07-07T16:27:18.771Z,25.20
2023-07-07T16:29:48.356Z,25.20
2023-07-07T16:32:18.497Z,25.20
2023-07-07T16:34:47.036Z,25.20
2023-07-07T16:37:16.118Z,25.20
2023-07-07T16:39:44.678Z,25.20
2023-07-07T16:42:14.444Z,25.20
2023-07-07T16:44:42.915Z,25.30
2023-07-07T16:47:13.616Z,25.30
2023-07-07T16:49:43.607Z,25.30
2023-07-07T16:52:12.829Z,25.30
2023-07-07T16:54:41.181Z,25.30
2023-07-07T16:57:11.558Z,25.30
2023-07-07T16:59:40.187Z,25.30
2023-07-07T17:02:10.839Z,25.30
2023-07-07T17:04:39.452Z,25.40
2023-07-07T17:07:12.701Z,25.40
2023-07-07T17:09:41.116Z,25.40
2023-07-07T17:12:13.157Z,25.40
2023-07-07T17:14:41.594Z,25.40
2023-07-07T17:17:11.816Z,25.40
2023-07-07T17:19:40.450Z,25.40
2023-07-07T17:22:10.996Z,25.40
2023-07-07T17:24:42.586Z,25.40
2023-07-07T17:27:12.818Z,25.40
2023-07-07T17:29:41.183Z,25.40
2023-07-07T17:32:11.555Z,25.50
2023-07-07T17:34:40.362Z,25.50
2023-07-07T17:37:29.143Z,25.50
2023-07-07T17:40:27.186Z,25.50
2023-07-07T17:43:05.720Z,25.50
2023-07-07T17:45:52.594Z,25.50
2023-07-07T17:48:32.404Z,25.50
2023-07-07T17:51:15.009Z,25.50
2023-07-07T17:53:52.187Z,25.50
2023-07-07T17:56:30.839Z,25.60
2023-07-07T17:59:02.081Z,25.60
2023-07-07T18:01:30.869Z,25.60
2023-07-07T18:03:59.292Z,25.60
2023-07-07T18:06:29.349Z,25.60
2023-07-07T18:08:59.258Z,25.60
2023-07-07T18:11:30.429Z,25.60
2023-07-07T18:13:59.544Z,25.70
2023-07-07T18:16:31.909Z,25.60
2023-07-07T18:19:05.457Z,25.60
2023-07-07T18:21:57.846Z,25.70
2023-07-07T18:24:29.621Z,25.70
2023-07-07T18:26:58.043Z,25.70
2023-07-07T18:29:26.832Z,25.70
2023-07-07T18:31:55.310Z,25.70
2023-07-07T18:34:24.220Z,25.70
2023-07-07T18:36:52.641Z,25.70
2023-07-07T18:39:28.133Z,25.70
2023-07-07T18:41:58.324Z,25.70
2023-07-07T18:44:27.466Z,25.70
2023-07-07T18:46:58.143Z,25.70
2023-07-07T18:49:28.650Z,25.70
2023-07-07T18:51:57.303Z,25.70
2023-07-07T18:54:25.785Z,25.80
2023-07-07T18:56:54.169Z,25.80
2023-07-07T18:59:24.524Z,25.80
2023-07-07T19:01:53.095Z,25.80
2023-07-07T19:04:21.819Z,25.80
2023-07-07T19:06:50.577Z,25.80
2023-07-07T19:09:20.666Z,25.80
2023-07-07T19:11:53.527Z,25.80
2023-07-07T19:14:23.729Z,25.80
2023-07-07T19:16:54.201Z,25.80
2023-07-07T19:19:27.349Z,25.80
2023-07-07T19:21:55.929Z,25.90
2023-07-07T19:24:27.322Z,25.90
2023-07-07T19:26:57.093Z,25.90
2023-07-07T19:29:26.912Z,25.90
2023-07-07T19:31:55.805Z,25.90
2023-07-07T19:34:24.558Z,25.90
2023-07-07T19:36:53.072Z,25.90
2023-07-07T19:39:23.526Z,25.90
2023-07-07T19:41:53.221Z,25.90
2023-07-07T19:44:22.118Z,25.90
2023-07-07T19:46:53.406Z,25.90
2023-07-07T19:49:25.523Z,25.90
2023-07-07T19:51:54.586Z,26.00
2023-07-07T19:54:24.381Z,26.00
2023-07-07T19:56:53.862Z,26.00
2023-07-07T19:59:22.617Z,26.00
2023-07-07T20:01:52.596Z,26.00
2023-07-07T20:04:24.322Z,26.00
2023-07-07T20:06:52.903Z,26.00
2023-07-07T20:09:26.537Z,26.00
2023-07-07T20:11:56.690Z,26.00
2023-07-07T20:14:28.293Z,26.00
2023-07-07T20:16:58.688Z,26.00
2023-07-07T20:19:30.307Z,26.00
2023-07-07T20:21:58.891Z,26.00
2023-07-07T20:24:28.951Z,26.00
2023-07-07T20:27:04.781Z,26.00
2023-07-07T20:29:33.558Z,26.00
2023-07-07T20:32:13.727Z,26.00
2023-07-07T20:34:42.615Z,26.00
2023-07-07T20:37:13.274Z,26.00
2023-07-07T20:39:42.107Z,26.00
2023-07-07T20:42:16.297Z,26.10
2023-07-07T20:44:45.506Z,26.10
2023-07-07T20:47:15.606Z,26.10
2023-07-07T20:49:44.315Z,26.10
2023-07-07T20:52:14.431Z,26.10
2023-07-07T20:54:43.276Z,26.10
2023-07-07T20:57:19.659Z,26.10
2023-07-07T20:59:50.074Z,26.10
2023-07-07T21:02:25.342Z,26.10
2023-07-07T21:04:54.112Z,26.10
2023-07-07T21:07:22.634Z,26.10
2023-07-07T21:09:52.546Z,26.10
2023-07-07T21:12:21.064Z,26.10
2023-07-07T21:14:49.936Z,26.20
2023-07-07T21:17:20.936Z,26.10
2023-07-07T21:19:49.575Z,26.10
2023-07-07T21:22:18.373Z,26.10
2023-07-07T21:24:47.381Z,26.10
2023-07-07T21:27:15.918Z,26.10
2023-07-07T21:29:46.278Z,26.10
2023-07-07T21:32:15.282Z,26.20
2023-07-07T21:34:45.594Z,26.20
2023-07-07T21:37:15.319Z,26.20
2023-07-07T21:39:44.360Z,26.20
2023-07-07T21:42:14.022Z,26.20
2023-07-07T21:44:45.340Z,26.20
2023-07-07T21:47:17.602Z,26.20
2023-07-07T21:49:49.928Z,26.20
2023-07-07T21:52:20.543Z,26.20
2023-07-07T21:54:49.450Z,26.20
2023-07-07T21:57:36.916Z,26.20
2023-07-07T22:00:13.113Z,26.20
2023-07-07T22:02:43.618Z,26.20
2023-07-07T22:05:15.823Z,26.20
2023-07-07T22:07:45.392Z,26.20
2023-07-07T22:10:18.231Z,26.20
2023-07-07T22:12:46.924Z,26.20
2023-07-07T22:15:15.807Z,26.20
2023-07-07T22:17:44.341Z,26.20
2023-07-07T22:20:40.038Z,26.20
2023-07-07T22:23:12.105Z,26.20
2023-07-07T22:25:43.066Z,26.20
2023-07-07T22:28:15.862Z,26.20
2023-07-07T22:30:47.246Z,26.20
2023-07-07T22:33:16.305Z,26.20
2023-07-07T22:35:46.442Z,26.30
2023-07-07T22:38:17.551Z,26.30
2023-07-07T22:40:48.217Z,26.30
2023-07-07T22:43:18.051Z,26.30
2023-07-07T22:45:50.829Z,26.30
2023-07-07T22:48:21.371Z,26.30
2023-07-07T22:50:52.009Z,26.30
2023-07-07T22:53:21.022Z,26.30
2023-07-07T22:55:50.068Z,26.30
2023-07-07T22:58:20.856Z,26.30
2023-07-07T23:00:50.508Z,26.30
2023-07-07T23:03:19.227Z,26.30
2023-07-07T23:05:48.550Z,26.30
2023-07-07T23:08:22.824Z,26.30
2023-07-07T23:10:52.390Z,26.30
2023-07-07T23:13:21.359Z,26.30
2023-07-07T23:15:50.158Z,26.30
2023-07-07T23:18:18.766Z,26.30
2023-07-07T23:20:47.374Z,26.30
2023-07-07T23:23:22.423Z,26.30
2023-07-07T23:25:58.578Z,26.30
2023-07-07T23:28:29.173Z,26.30
2023-07-07T23:31:05.639Z,26.30
2023-07-07T23:33:36.318Z,26.30
2023-07-07T23:36:13.459Z,26.30
2023-07-07T23:38:42.078Z,26.30
2023-07-07T23:41:12.860Z,26.30
2023-07-07T23:43:41.697Z,26.30
2023-07-07T23:46:15.592Z,26.30
2023-07-07T23:48:44.859Z,26.30
2023-07-07T23:51:14.983Z,26.30
2023-07-07T23:53:43.719Z,26.30
2023-07-07T23:56:19.911Z,26.30
2023-07-07T23:58:48.556Z,26.30
